Flight Number: EUR3040 Duration: 11:00
Departure: Warsaw Okecie (EPWA) at 08:00 Distance: 4057 Nm
Arrival: Chicago O'Hare (KORD) at 19:00 Equipment: B747

Weather Information
Warszawa-Okecie, Poland (EPWA) 52-10N 020-58E 107M May 24, 2018 - 05:30 PM EDT / 2018.05.24 2130 UTC
Wind: from the NE (040 degrees) at 9 MPH (8 KT):0
Visibility: greater than 7 mile(s):0 Temperature: 68 F (20 C) Dew Point: 48 F (9 C) Relative Humidity: 49% Pressure (altimeter): 30.18 in. Hg (1022 hPa)
ob: EPWA 242130Z 04008KT CAVOK 20/09 Q1022 NOSIG cycle: 21
Sunrise: 02:33 Sunset: 18:32 (UTC)

CHICAGO O'HARE INTERNATIONAL, IL, United States (KORD) 41-59N 087-55W 200M May 24, 2018 - 04:51 PM EDT / 2018.05.24 2051 UTC
Wind: from the S (190 degrees) at 9 MPH (8 KT):0
Visibility: 10 mile(s):0
Sky conditions: mostly cloudy Temperature: 84.9 F (29.4 C) Dew Point: 54.0 F (12.2 C) Relative Humidity: 34% Pressure (altimeter): 30.08 in. Hg (1018 hPa) Pressure tendency: 0.05 inches (1.8 hPa) lower than three hours ago
ob: KORD 242051Z 19008KT 10SM FEW070 BKN250 29/12 A3008 RMK AO2 SLP183 T02940122 56018 cycle: 21
Sunrise: 10:26 Sunset: 01:10 (UTC)

TAF:2018/05/24 21:59 TAF AMD KORD 242059Z 2421/2524 17008KT P6SM FEW070 FEW250 FM242130 13007KT P6SM FEW250 FM250600 20006KT P6SM FEW250 FM251500 22012KT P6SM SCT150 BKN250

Previous Pireps for this route
Date Aircraft Flight time Fuel used Landing rate On time
2016-05-07B74709.35208501-398Yes
(pireps marked green are flown by you)

Route map